Time;durP1;ratioP1;P1;durP2;ratioP2;P2;SDS_P1;SDS_P2;PMS_P1;PMS_P2;Temp;Humidity;BMP_temperature;BMP_pressure;BME280_temperature;BME280_humidity;BME280_pressure;Samples;Min_cycle;Max_cycle;Signal;HPM_P1;HPM_P2
2023/04/22 00:01:31;;;;;;;3.30;3.00;;;10.50;99.90;;;;;;5074765;28;20383;-80
2023/04/22 00:03:57;;;;;;;3.43;2.90;;;10.50;99.90;;;;;;5076563;28;20753;-80
2023/04/22 00:06:22;;;;;;;2.90;2.50;;;10.50;99.90;;;;;;5076403;28;20380;-80
2023/04/22 00:08:48;;;;;;;3.13;2.75;;;10.40;99.90;;;;;;5074705;28;20379;-80
2023/04/22 00:11:14;;;;;;;3.10;2.80;;;10.30;99.90;;;;;;5074175;28;20479;-80
2023/04/22 00:13:39;;;;;;;2.83;2.63;;;10.20;99.90;;;;;;5075077;28;20376;-80
2023/04/22 00:16:06;;;;;;;3.10;2.90;;;10.20;99.90;;;;;;5073530;28;20488;-80
2023/04/22 00:18:34;;;;;;;3.42;3.08;;;10.20;99.90;;;;;;5075625;28;20395;-80
2023/04/22 00:21:00;;;;;;;3.08;2.78;;;10.20;99.90;;;;;;5076311;28;20455;-80
2023/04/22 00:23:26;;;;;;;2.97;2.70;;;10.20;99.90;;;;;;5075890;28;20453;-80
2023/04/22 00:25:51;;;;;;;2.77;2.50;;;10.10;99.90;;;;;;5076586;28;20432;-80
2023/04/22 00:28:17;;;;;;;3.50;2.83;;;10.00;99.90;;;;;;5092880;28;20437;-80
2023/04/22 00:30:42;;;;;;;2.83;2.63;;;9.90;99.90;;;;;;5076229;28;20384;-80
2023/04/22 00:33:08;;;;;;;3.37;2.77;;;9.90;99.90;;;;;;5075265;28;20536;-80
2023/04/22 00:35:34;;;;;;;4.18;2.92;;;9.90;99.90;;;;;;5074853;28;20411;-80
2023/04/22 00:38:00;;;;;;;2.72;2.53;;;9.80;99.90;;;;;;5076718;28;20384;-80
2023/04/22 00:40:25;;;;;;;3.00;2.70;;;9.70;99.90;;;;;;5072979;28;20427;-80
2023/04/22 00:42:51;;;;;;;2.77;2.57;;;9.60;99.90;;;;;;5077714;28;20410;-80
2023/04/22 00:45:19;;;;;;;4.00;2.88;;;9.50;99.90;;;;;;5096084;28;20470;-80
2023/04/22 00:47:46;;;;;;;3.40;2.50;;;9.50;99.90;;;;;;5096043;28;20387;-81
2023/04/22 00:50:11;;;;;;;3.22;2.70;;;9.50;99.90;;;;;;5077541;28;20722;-81
2023/04/22 00:52:37;;;;;;;2.70;2.50;;;9.40;99.90;;;;;;5073573;28;20465;-81
2023/04/22 00:55:03;;;;;;;3.30;2.50;;;9.40;99.90;;;;;;5073268;28;20485;-81
2023/04/22 00:57:30;;;;;;;2.90;2.20;;;9.30;99.90;;;;;;5075687;28;20386;-81
2023/04/22 00:59:56;;;;;;;3.10;2.30;;;9.40;99.90;;;;;;5076983;28;20390;-81
2023/04/22 01:02:22;;;;;;;4.10;2.67;;;9.30;99.90;;;;;;5095689;28;20431;-81
2023/04/22 01:04:47;;;;;;;2.67;2.43;;;9.30;99.90;;;;;;5094808;28;20505;-81
2023/04/22 01:07:13;;;;;;;5.20;3.00;;;9.30;99.90;;;;;;5095185;28;20405;-81
2023/04/22 01:09:39;;;;;;;2.47;2.27;;;9.10;99.90;;;;;;5094991;28;20383;-81
2023/04/22 01:12:05;;;;;;;2.78;2.58;;;9.10;99.90;;;;;;5099523;28;20378;-81
2023/04/22 01:14:31;;;;;;;3.47;2.40;;;9.10;99.90;;;;;;5107444;28;20393;-81
2023/04/22 01:16:57;;;;;;;3.63;2.25;;;9.10;99.90;;;;;;5103577;28;20374;-81
2023/04/22 01:19:23;;;;;;;2.70;2.50;;;9.00;99.90;;;;;;5101236;28;20401;-81
2023/04/22 01:21:50;;;;;;;2.30;2.10;;;8.90;99.90;;;;;;5098939;28;20453;-81
2023/04/22 01:24:16;;;;;;;2.75;2.35;;;8.90;99.90;;;;;;5080609;28;20452;-81
2023/04/22 01:26:42;;;;;;;3.67;2.50;;;9.00;99.90;;;;;;5097795;28;20370;-81
2023/04/22 01:29:07;;;;;;;2.35;2.15;;;9.00;99.90;;;;;;5099348;28;20737;-81
2023/04/22 01:31:33;;;;;;;2.40;2.20;;;9.00;99.90;;;;;;5103352;28;20371;-81
2023/04/22 01:33:59;;;;;;;2.50;2.30;;;8.90;99.90;;;;;;5102205;28;20404;-81
2023/04/22 01:36:25;;;;;;;2.40;2.20;;;8.70;99.90;;;;;;5099400;28;20389;-81
2023/04/22 01:38:51;;;;;;;4.32;2.58;;;8.60;99.90;;;;;;5099322;28;20374;-81
2023/04/22 01:41:17;;;;;;;2.63;2.40;;;8.60;99.90;;;;;;5097070;28;20401;-81
2023/04/22 01:43:43;;;;;;;3.90;2.70;;;8.70;99.90;;;;;;5075172;28;20416;-81
2023/04/22 01:46:09;;;;;;;2.40;2.20;;;8.90;99.90;;;;;;5074150;28;20474;-81
2023/04/22 01:48:34;;;;;;;2.60;2.40;;;8.80;99.90;;;;;;5076072;28;20414;-81
2023/04/22 01:51:01;;;;;;;2.13;2.03;;;8.70;99.90;;;;;;5077071;28;20384;-81
2023/04/22 01:53:26;;;;;;;2.60;2.40;;;8.60;99.90;;;;;;5075575;28;20463;-81
2023/04/22 01:55:52;;;;;;;2.60;2.40;;;8.50;99.90;;;;;;5074593;28;20462;-81
2023/04/22 01:58:18;;;;;;;2.53;2.33;;;8.50;99.90;;;;;;5083208;28;20374;-81
2023/04/22 02:00:44;;;;;;;2.58;2.38;;;8.50;99.90;;;;;;5096964;28;20390;-81
2023/04/22 02:03:10;;;;;;;2.88;2.58;;;8.50;99.90;;;;;;5078934;28;20441;-81
2023/04/22 02:05:37;;;;;;;2.60;2.40;;;8.50;99.90;;;;;;5095816;28;20738;-81
2023/04/22 02:08:02;;;;;;;2.70;2.50;;;8.60;99.90;;;;;;5095172;28;20370;-81
2023/04/22 02:10:28;;;;;;;2.70;2.50;;;8.60;99.90;;;;;;5077522;28;20381;-81
2023/04/22 02:12:53;;;;;;;2.87;2.50;;;8.50;99.90;;;;;;5077550;28;20382;-81
2023/04/22 02:15:19;;;;;;;2.85;2.58;;;8.40;99.90;;;;;;5094964;28;20373;-81
2023/04/22 02:17:46;;;;;;;2.72;2.33;;;8.30;99.90;;;;;;5076481;28;20378;-81
2023/04/22 02:20:12;;;;;;;3.03;2.78;;;8.30;99.90;;;;;;5094806;28;20461;-81
2023/04/22 02:22:38;;;;;;;2.65;2.35;;;8.30;99.90;;;;;;5094498;28;20413;-81
2023/04/22 02:25:05;;;;;;;2.65;2.33;;;8.30;99.90;;;;;;5094864;28;20398;-81
2023/04/22 02:27:30;;;;;;;2.60;2.40;;;8.40;99.90;;;;;;5075883;28;20389;-81
2023/04/22 02:29:56;;;;;;;3.20;2.90;;;8.30;99.90;;;;;;5094176;28;20370;-81
2023/04/22 02:32:21;;;;;;;3.70;2.40;;;8.30;99.90;;;;;;5094657;28;20378;-81
2023/04/22 02:34:47;;;;;;;3.10;2.63;;;8.30;99.90;;;;;;5093436;28;20385;-81
2023/04/22 02:37:13;;;;;;;3.05;2.30;;;8.20;99.90;;;;;;5094031;28;20389;-81
2023/04/22 02:39:38;;;;;;;2.90;2.07;;;8.10;99.90;;;;;;5093434;28;20393;-81
2023/04/22 02:42:04;;;;;;;2.63;2.30;;;8.10;99.90;;;;;;5075388;28;20764;-81
2023/04/22 02:44:29;;;;;;;2.63;2.40;;;8.10;99.90;;;;;;5072316;28;20400;-81
2023/04/22 02:46:55;;;;;;;3.00;2.50;;;8.00;99.90;;;;;;5089534;28;20789;-81
2023/04/22 02:49:21;;;;;;;4.30;3.30;;;8.00;99.90;;;;;;5094096;28;20378;-81
2023/04/22 02:51:46;;;;;;;3.00;2.60;;;8.10;99.90;;;;;;5076167;28;20388;-81
2023/04/22 02:54:12;;;;;;;2.80;2.20;;;8.00;99.90;;;;;;5093200;28;20373;-81
2023/04/22 02:56:37;;;;;;;2.20;2.10;;;8.00;99.90;;;;;;5093946;28;20427;-81
2023/04/22 02:59:03;;;;;;;2.70;2.00;;;7.90;99.90;;;;;;5075964;28;20416;-81
2023/04/22 03:01:28;;;;;;;2.30;2.10;;;8.00;99.90;;;;;;5093949;28;21037;-81
2023/04/22 03:03:55;;;;;;;2.63;2.43;;;8.10;99.90;;;;;;5093996;28;20405;-81
2023/04/22 03:06:21;;;;;;;2.47;2.20;;;8.00;99.90;;;;;;5094262;28;20378;-81
2023/04/22 03:08:46;;;;;;;3.37;2.40;;;8.00;99.90;;;;;;5077541;28;20374;-81
2023/04/22 03:11:12;;;;;;;2.90;2.20;;;8.10;99.90;;;;;;5095153;28;20382;-81
2023/04/22 03:13:38;;;;;;;2.13;2.03;;;8.20;99.90;;;;;;5096247;28;20409;-81
2023/04/22 03:16:04;;;;;;;2.20;1.90;;;8.20;99.90;;;;;;5097024;28;20382;-81
2023/04/22 03:18:29;;;;;;;2.20;1.90;;;8.10;99.90;;;;;;5098431;28;20404;-81
2023/04/22 03:20:55;;;;;;;1.77;1.63;;;7.90;99.90;;;;;;5101113;28;20809;-81
2023/04/22 03:23:20;;;;;;;4.73;2.20;;;7.90;99.90;;;;;;5076416;28;20470;-81
2023/04/22 03:25:46;;;;;;;2.22;2.03;;;7.90;99.90;;;;;;5075106;28;20442;-81
2023/04/22 03:28:11;;;;;;;2.50;2.30;;;7.80;99.90;;;;;;5093937;28;20883;-81
2023/04/22 03:30:37;;;;;;;2.10;1.90;;;7.80;99.90;;;;;;5093909;28;20381;-81
2023/04/22 03:33:02;;;;;;;2.77;2.00;;;7.90;99.90;;;;;;5094954;28;20456;-81
2023/04/22 03:35:28;;;;;;;2.03;1.90;;;7.80;99.90;;;;;;5093751;28;20767;-81
2023/04/22 03:37:54;;;;;;;2.20;2.00;;;7.90;99.90;;;;;;5094037;28;20377;-81
2023/04/22 03:40:20;;;;;;;1.88;1.70;;;7.80;99.90;;;;;;5082887;28;20446;-81
2023/04/22 03:42:45;;;;;;;2.70;1.80;;;8.00;99.90;;;;;;5077711;28;20418;-82
2023/04/22 03:45:11;;;;;;;2.50;1.73;;;8.00;99.90;;;;;;5095248;28;20413;-81
2023/04/22 03:47:36;;;;;;;2.50;2.08;;;8.00;99.90;;;;;;5079730;28;20879;-81
2023/04/22 03:50:02;;;;;;;2.97;2.00;;;8.00;99.90;;;;;;5097549;28;20378;-81
2023/04/22 03:52:28;;;;;;;3.40;1.97;;;8.10;99.90;;;;;;5097069;28;20382;-81
2023/04/22 03:54:53;;;;;;;2.10;1.70;;;8.10;99.90;;;;;;5097785;28;20432;-81
2023/04/22 03:57:19;;;;;;;2.80;2.00;;;8.00;99.90;;;;;;5078752;28;20775;-81
2023/04/22 03:59:44;;;;;;;2.23;2.03;;;8.00;99.90;;;;;;5105498;28;20427;-81
2023/04/22 04:02:10;;;;;;;2.50;2.00;;;8.10;99.90;;;;;;5088028;28;20409;-81
2023/04/22 04:04:36;;;;;;;2.30;2.10;;;8.10;99.90;;;;;;5099039;28;20433;-81
2023/04/22 04:07:01;;;;;;;1.93;1.83;;;8.10;99.90;;;;;;5079519;28;20389;-81
2023/04/22 04:09:27;;;;;;;2.10;1.80;;;8.10;99.90;;;;;;5079285;28;20382;-81
2023/04/22 04:11:52;;;;;;;2.60;2.40;;;8.20;99.90;;;;;;5101349;28;20898;-80
2023/04/22 04:14:18;;;;;;;2.05;1.80;;;8.10;99.90;;;;;;5100258;28;20386;-81
2023/04/22 04:16:43;;;;;;;2.10;2.00;;;8.00;99.90;;;;;;5079684;28;20799;-81
2023/04/22 04:19:09;;;;;;;2.43;2.00;;;8.00;99.90;;;;;;5098693;28;20397;-81
2023/04/22 04:21:36;;;;;;;2.50;2.20;;;8.10;99.90;;;;;;5097635;28;20419;-81
2023/04/22 04:24:02;;;;;;;2.40;2.20;;;8.10;99.90;;;;;;5097713;28;20918;-81
2023/04/22 04:26:28;;;;;;;2.28;2.08;;;8.10;99.90;;;;;;5098180;28;20378;-81
2023/04/22 04:28:54;;;;;;;2.28;2.08;;;8.10;99.90;;;;;;5097605;28;20779;-82
2023/04/22 04:31:20;;;;;;;3.00;1.90;;;8.10;99.90;;;;;;5097596;28;20370;-81
2023/04/22 04:33:46;;;;;;;2.03;1.83;;;8.10;99.90;;;;;;5098512;28;20389;-81
2023/04/22 04:36:12;;;;;;;2.40;1.90;;;8.10;99.90;;;;;;5101511;28;20457;-81
2023/04/22 04:38:37;;;;;;;2.37;2.20;;;8.20;99.90;;;;;;5105305;28;20412;-82
2023/04/22 04:41:03;;;;;;;1.80;1.70;;;8.20;99.90;;;;;;5100058;28;20821;-81
2023/04/22 04:43:29;;;;;;;3.30;1.80;;;8.20;99.90;;;;;;5099323;28;20478;-82
2023/04/22 04:45:54;;;;;;;2.30;2.10;;;8.20;99.90;;;;;;5082929;28;20386;-82
2023/04/22 04:48:23;;;;;;;2.40;2.20;;;8.30;99.90;;;;;;5078702;28;20386;-82
2023/04/22 04:50:52;;;;;;;2.50;2.30;;;8.20;99.90;;;;;;5096953;28;20431;-81
2023/04/22 04:53:21;;;;;;;3.10;2.10;;;8.30;99.90;;;;;;5078947;28;20445;-82
2023/04/22 04:55:47;;;;;;;2.40;2.20;;;8.30;99.90;;;;;;5096363;28;20471;-82
2023/04/22 04:58:13;;;;;;;2.35;2.10;;;8.40;99.90;;;;;;5094905;28;20394;-82
2023/04/22 05:00:38;;;;;;;2.30;2.10;;;8.40;99.90;;;;;;5097785;28;20808;-82
2023/04/22 05:03:04;;;;;;;2.20;2.00;;;8.30;99.90;;;;;;5078833;28;20378;-82
2023/04/22 05:05:29;;;;;;;2.80;1.95;;;8.40;99.90;;;;;;5078421;28;20461;-81
2023/04/22 05:07:55;;;;;;;3.00;2.25;;;8.40;99.90;;;;;;5095392;28;20470;-81
2023/04/22 05:10:20;;;;;;;1.90;1.80;;;8.40;99.90;;;;;;5095732;28;20386;-82
2023/04/22 05:12:49;;;;;;;2.30;2.10;;;8.40;99.90;;;;;;5097491;28;20392;-82
2023/04/22 05:15:15;;;;;;;3.00;2.20;;;8.40;99.90;;;;;;5101433;28;20597;-85
2023/04/22 05:17:41;;;;;;;2.30;2.10;;;8.50;99.90;;;;;;5078779;28;20802;-86
2023/04/22 05:20:07;;;;;;;2.30;2.10;;;8.50;99.90;;;;;;5077503;28;20382;-85
2023/04/22 05:22:33;;;;;;;1.98;1.88;;;8.60;99.90;;;;;;5075738;28;20395;-86
2023/04/22 05:24:59;;;;;;;2.35;2.15;;;8.70;99.90;;;;;;5101778;28;20406;-85
2023/04/22 05:27:24;;;;;;;2.30;1.80;;;8.80;99.90;;;;;;5098050;28;20397;-86
2023/04/22 05:29:50;;;;;;;2.20;1.97;;;8.90;99.90;;;;;;5093176;28;20473;-86
2023/04/22 05:32:16;;;;;;;2.30;2.10;;;8.90;99.90;;;;;;5096655;28;20451;-86
2023/04/22 05:34:41;;;;;;;2.28;2.08;;;9.00;99.90;;;;;;5076943;28;20378;-86
2023/04/22 05:37:08;;;;;;;1.93;1.83;;;8.90;99.90;;;;;;5093045;28;20764;-86
2023/04/22 05:39:34;;;;;;;2.55;1.90;;;8.90;99.90;;;;;;5071768;28;20386;-86
2023/04/22 05:42:00;;;;;;;2.17;1.97;;;9.00;99.90;;;;;;5070674;28;20380;-86
2023/04/22 05:44:26;;;;;;;2.35;2.00;;;9.00;99.90;;;;;;5074307;28;20413;-85
2023/04/22 05:46:51;;;;;;;2.73;2.50;;;9.00;99.90;;;;;;5070882;28;20395;-86
2023/04/22 05:49:17;;;;;;;2.90;2.30;;;9.00;99.90;;;;;;5087964;28;20389;-84
2023/04/22 05:51:42;;;;;;;2.20;2.00;;;9.10;99.90;;;;;;5075798;28;20391;-86
2023/04/22 05:54:08;;;;;;;2.10;1.70;;;9.40;99.90;;;;;;5071210;28;20437;-88
2023/04/22 05:56:33;;;;;;;2.40;2.17;;;9.40;99.90;;;;;;5077348;28;20778;-86
2023/04/22 05:58:59;;;;;;;2.13;1.92;;;9.40;99.90;;;;;;5075421;28;20895;-87
2023/04/22 06:01:24;;;;;;;1.90;1.80;;;9.60;99.90;;;;;;5070841;28;20462;-85
2023/04/22 06:03:50;;;;;;;2.30;2.10;;;9.70;99.90;;;;;;5070789;28;20396;-87
2023/04/22 06:06:16;;;;;;;2.20;2.00;;;9.80;99.90;;;;;;5073944;28;20481;-86
2023/04/22 06:08:41;;;;;;;1.83;1.70;;;9.90;99.90;;;;;;5073968;28;20385;-84
2023/04/22 06:11:07;;;;;;;3.08;1.80;;;10.10;99.90;;;;;;5094909;28;20374;-86
2023/04/22 06:13:32;;;;;;;2.00;1.90;;;10.20;99.90;;;;;;5095907;28;20414;-83
2023/04/22 06:15:58;;;;;;;2.20;2.00;;;10.50;99.90;;;;;;5095086;28;20378;-83
2023/04/22 06:18:24;;;;;;;2.30;1.80;;;10.70;99.90;;;;;;5096400;28;20390;-83
2023/04/22 06:20:50;;;;;;;1.65;1.55;;;11.00;99.90;;;;;;5102778;28;20388;-84
2023/04/22 06:23:16;;;;;;;2.23;2.00;;;11.20;99.90;;;;;;5079187;28;20400;-84
2023/04/22 06:25:42;;;;;;;2.00;1.90;;;11.40;99.90;;;;;;5096863;28;20465;-83
2023/04/22 06:28:07;;;;;;;2.10;1.90;;;11.70;99.90;;;;;;5100090;28;20374;-83
2023/04/22 06:30:33;;;;;;;1.50;1.40;;;11.90;99.90;;;;;;5092082;28;20886;-84
2023/04/22 06:32:58;;;;;;;1.90;1.70;;;11.90;99.90;;;;;;5091856;28;20389;-84
2023/04/22 06:35:24;;;;;;;1.92;1.60;;;12.10;99.90;;;;;;5069867;28;20430;-84
2023/04/22 06:37:50;;;;;;;2.13;1.73;;;12.30;88.50;;;;;;5073775;28;20382;-84
2023/04/22 06:40:15;;;;;;;1.90;1.80;;;12.40;81.00;;;;;;5091935;28;20390;-83
2023/04/22 06:42:41;;;;;;;3.87;3.20;;;12.40;74.00;;;;;;5072201;28;20427;-84
2023/04/22 06:45:08;;;;;;;4.40;4.00;;;12.30;87.60;;;;;;5076359;28;20769;-86
2023/04/22 06:47:33;;;;;;;4.30;3.80;;;12.20;99.00;;;;;;5080175;28;20412;-85
2023/04/22 06:50:01;;;;;;;4.40;4.00;;;12.00;99.90;;;;;;5076271;28;20380;-86
2023/04/22 06:52:26;;;;;;;6.00;4.80;;;11.90;99.90;;;;;;5078818;28;20390;-86
2023/04/22 06:54:52;;;;;;;4.97;4.47;;;11.90;99.90;;;;;;5101570;28;20410;-86
2023/04/22 06:57:17;;;;;;;5.37;4.87;;;11.90;99.90;;;;;;5100182;28;20423;-86
2023/04/22 06:59:43;;;;;;;5.23;4.83;;;11.80;99.90;;;;;;5074522;28;20837;-84
2023/04/22 07:02:08;;;;;;;5.07;4.57;;;11.90;99.90;;;;;;5075467;28;20900;-84
2023/04/22 07:04:34;;;;;;;5.20;4.10;;;11.80;99.90;;;;;;5073244;28;20396;-84
2023/04/22 07:07:00;;;;;;;4.90;4.50;;;11.80;99.90;;;;;;5077243;28;20411;-85
2023/04/22 07:09:25;;;;;;;4.70;4.30;;;11.80;99.90;;;;;;5096557;28;20801;-85
2023/04/22 07:11:51;;;;;;;4.60;4.20;;;11.90;99.90;;;;;;5093046;28;20452;-84
2023/04/22 07:14:16;;;;;;;5.40;4.67;;;11.90;99.90;;;;;;5070806;28;20380;-85
2023/04/22 07:16:42;;;;;;;5.63;4.93;;;12.00;99.90;;;;;;5068721;28;20396;-86
2023/04/22 07:19:08;;;;;;;6.30;5.45;;;12.10;99.90;;;;;;5098346;28;20414;-85
2023/04/22 07:21:33;;;;;;;7.10;6.40;;;12.10;99.90;;;;;;5077866;28;20390;-85
2023/04/22 07:23:59;;;;;;;6.00;5.50;;;12.30;99.90;;;;;;5095400;28;20489;-85
2023/04/22 07:26:25;;;;;;;6.60;6.00;;;12.20;99.90;;;;;;5073525;28;20434;-85
2023/04/22 07:28:50;;;;;;;7.10;6.40;;;12.30;99.90;;;;;;5073502;28;20378;-85
2023/04/22 07:31:16;;;;;;;6.97;6.38;;;12.30;99.90;;;;;;5101737;28;20800;-86
2023/04/22 07:33:42;;;;;;;7.03;6.43;;;12.40;99.90;;;;;;5095257;28;20378;-84
2023/04/22 07:36:07;;;;;;;7.47;6.65;;;12.50;99.90;;;;;;5094121;28;20415;-84
2023/04/22 07:38:33;;;;;;;6.22;5.65;;;12.50;99.90;;;;;;5097327;28;20388;-86
2023/04/22 07:40:59;;;;;;;4.90;4.40;;;12.60;99.90;;;;;;5079388;28;20905;-87
2023/04/22 07:43:24;;;;;;;7.17;5.40;;;12.70;89.30;;;;;;5093188;28;20413;-84
2023/04/22 07:45:50;;;;;;;6.22;5.63;;;12.70;90.70;;;;;;5070719;28;20395;-85
2023/04/22 07:48:15;;;;;;;6.87;6.00;;;12.90;88.70;;;;;;5080746;28;20382;-86
2023/04/22 07:50:41;;;;;;;6.50;5.90;;;13.00;85.40;;;;;;5079643;28;20380;-87
2023/04/22 07:53:07;;;;;;;6.60;6.00;;;13.20;82.00;;;;;;5081105;28;20397;-84
2023/04/22 07:55:33;;;;;;;5.65;5.05;;;13.20;75.30;;;;;;5095051;28;20388;-84
2023/04/22 07:58:05;;;;;;;6.60;5.70;;;13.40;72.40;;;;;;5075288;28;20384;-87
2023/04/22 08:00:32;;;;;;;6.47;5.95;;;13.50;70.80;;;;;;5074421;28;20915;-84
2023/04/22 08:02:57;;;;;;;6.45;5.85;;;13.70;66.20;;;;;;5095056;28;20401;-84
2023/04/22 08:05:23;;;;;;;6.00;5.50;;;13.80;61.30;;;;;;5095195;28;20498;-84
2023/04/22 08:07:48;;;;;;;6.30;5.70;;;13.80;58.90;;;;;;5077690;28;20385;-84
2023/04/22 08:10:14;;;;;;;6.20;5.70;;;13.80;60.00;;;;;;5074848;28;20928;-85
2023/04/22 08:12:39;;;;;;;4.97;4.13;;;14.00;58.20;;;;;;5096186;28;20404;-85
2023/04/22 08:15:05;;;;;;;5.80;5.30;;;14.20;51.70;;;;;;5074732;28;20407;-86
2023/04/22 08:17:31;;;;;;;5.88;5.38;;;14.40;53.30;;;;;;5074740;28;20382;-87
2023/04/22 08:19:57;;;;;;;6.70;5.60;;;15.60;50.10;;;;;;5067125;28;20403;-86
2023/04/22 08:22:22;;;;;;;5.67;5.07;;;14.70;47.10;;;;;;5099868;28;20861;-87
2023/04/22 08:24:48;;;;;;;5.90;5.40;;;14.60;46.30;;;;;;5078013;28;20406;-87
2023/04/22 08:27:13;;;;;;;5.72;5.10;;;14.90;47.00;;;;;;5076540;28;20411;-86
2023/04/22 08:29:39;;;;;;;5.00;4.50;;;15.10;44.30;;;;;;5105738;28;20477;-86
2023/04/22 08:32:05;;;;;;;5.50;5.00;;;15.30;39.00;;;;;;5077412;28;20399;-86
2023/04/22 08:34:30;;;;;;;5.60;5.10;;;15.60;37.00;;;;;;5073279;28;20470;-86
2023/04/22 08:36:56;;;;;;;7.13;5.03;;;15.80;31.80;;;;;;5073430;28;20801;-86
2023/04/22 08:39:21;;;;;;;5.13;4.67;;;15.80;30.50;;;;;;5073142;28;20513;-86
2023/04/22 08:41:49;;;;;;;5.13;4.63;;;16.10;29.40;;;;;;5073505;28;20900;-86
2023/04/22 08:44:15;;;;;;;5.70;5.20;;;16.40;27.80;;;;;;5073253;28;20403;-87
2023/04/22 08:46:45;;;;;;;6.80;5.00;;;16.50;27.80;;;;;;5080253;28;20408;-86
2023/04/22 08:49:14;;;;;;;5.00;4.10;;;16.50;24.40;;;;;;5079580;28;20861;-87
2023/04/22 08:51:41;;;;;;;5.00;3.60;;;17.00;20.10;;;;;;5096342;28;20373;-86
2023/04/22 08:54:07;;;;;;;5.00;3.10;;;17.20;18.10;;;;;;5095263;28;20874;-86
2023/04/22 08:56:34;;;;;;;4.03;2.60;;;17.30;15.70;;;;;;5077141;28;20432;-87
2023/04/22 08:59:00;;;;;;;3.42;3.10;;;17.60;13.60;;;;;;5076709;28;20402;-86
2023/04/22 09:01:29;;;;;;;3.75;2.90;;;17.60;12.10;;;;;;5077133;28;20790;-86
2023/04/22 09:03:58;;;;;;;4.07;2.80;;;17.70;12.20;;;;;;5094257;28;20478;-86
2023/04/22 09:06:23;;;;;;;4.63;2.65;;;17.90;10.10;;;;;;5096007;28;20434;-85
2023/04/22 09:08:49;;;;;;;2.70;2.50;;;18.00;8.50;;;;;;5096052;28;20476;-85
2023/04/22 09:11:16;;;;;;;3.80;3.00;;;17.90;8.20;;;;;;5076250;28;20382;-85
2023/04/22 09:13:42;;;;;;;3.85;3.05;;;18.10;9.90;;;;;;5075992;28;20806;-86
2023/04/22 09:16:08;;;;;;;2.73;2.53;;;18.10;9.50;;;;;;5077061;28;20382;-85
2023/04/22 09:18:41;;;;;;;4.10;3.42;;;18.30;11.30;;;;;;5075817;28;20464;-86
2023/04/22 09:21:07;;;;;;;3.40;3.10;;;18.40;10.30;;;;;;5093908;28;20381;-86
2023/04/22 09:23:43;;;;;;;4.07;3.15;;;18.30;10.60;;;;;;5076344;28;20398;-84
2023/04/22 09:26:08;;;;;;;3.13;2.83;;;18.50;9.60;;;;;;5076780;28;20408;-86
2023/04/22 09:28:36;;;;;;;3.97;3.40;;;18.70;8.10;;;;;;5095505;28;20378;-84
2023/04/22 09:31:02;;;;;;;3.85;2.88;;;18.70;5.90;;;;;;5100912;28;20378;-87
2023/04/22 09:33:29;;;;;;;3.20;2.90;;;18.50;6.90;;;;;;5082006;28;20465;-84
2023/04/22 09:35:55;;;;;;;3.05;2.80;;;18.50;6.30;;;;;;5093051;28;20805;-85
2023/04/22 09:38:20;;;;;;;3.87;3.57;;;18.60;7.00;;;;;;5097012;28;20378;-85
2023/04/22 09:40:46;;;;;;;4.47;3.40;;;18.60;6.20;;;;;;5075846;28;20403;-85
2023/04/22 09:43:16;;;;;;;3.30;3.00;;;18.70;5.60;;;;;;5077127;28;20394;-85
2023/04/22 09:45:42;;;;;;;3.40;3.00;;;18.70;5.60;;;;;;5074856;28;20384;-86
2023/04/22 09:48:16;;;;;;;3.70;3.00;;;18.80;6.00;;;;;;5080026;28;20383;-87
2023/04/22 09:50:47;;;;;;;3.10;2.80;;;18.70;6.20;;;;;;5079445;28;20391;-84
2023/04/22 09:53:20;;;;;;;2.60;2.40;;;18.60;7.30;;;;;;5085124;28;20378;-86
2023/04/22 09:55:48;;;;;;;2.50;2.30;;;18.80;4.70;;;;;;5085982;28;20388;-86
2023/04/22 09:58:16;;;;;;;2.40;2.20;;;18.60;4.60;;;;;;5080414;28;20397;-86
2023/04/22 10:00:50;;;;;;;4.13;2.40;;;18.90;4.20;;;;;;5097313;28;20798;-86
2023/04/22 10:03:16;;;;;;;3.70;2.50;;;18.90;3.40;;;;;;5099251;28;20421;-85
2023/04/22 10:05:44;;;;;;;2.70;2.30;;;18.80;3.00;;;;;;5080150;28;20374;-86
2023/04/22 10:08:10;;;;;;;3.20;2.17;;;19.00;3.60;;;;;;5083147;28;20376;-88
2023/04/22 10:10:36;;;;;;;2.40;2.20;;;19.30;2.40;;;;;;5091197;28;20443;-87
2023/04/22 10:13:03;;;;;;;2.40;2.20;;;19.50;1.00;;;;;;5111823;28;20397;-86
2023/04/22 10:15:35;;;;;;;2.30;2.10;;;19.50;1.00;;;;;;5090753;28;20432;-87
2023/04/22 10:18:03;;;;;;;3.90;2.53;;;19.70;1.00;;;;;;5115871;28;20396;-86
2023/04/22 10:20:30;;;;;;;3.08;2.08;;;20.00;1.00;;;;;;5096345;28;20398;-85
2023/04/22 10:22:56;;;;;;;2.70;2.30;;;20.10;1.00;;;;;;5112491;28;20408;-85
2023/04/22 10:25:24;;;;;;;2.30;2.10;;;20.10;1.00;;;;;;5092232;28;20390;-86
2023/04/22 10:28:06;;;;;;;2.33;2.00;;;20.20;1.00;;;;;;5110935;28;20389;-85
2023/04/22 10:30:36;;;;;;;3.70;2.15;;;20.60;1.00;;;;;;5084625;28;20534;-84
2023/04/22 10:33:20;;;;;;;4.20;2.20;;;20.80;1.00;;;;;;5084177;28;20836;-85
2023/04/22 10:36:04;;;;;;;2.38;1.95;;;20.90;1.00;;;;;;5082956;28;20396;-84
2023/04/22 10:38:51;;;;;;;2.45;2.25;;;20.90;1.00;;;;;;5078076;28;20388;-84
2023/04/22 10:41:22;;;;;;;3.22;2.35;;;20.70;1.00;;;;;;5078799;28;20449;-84
2023/04/22 10:43:57;;;;;;;4.43;2.38;;;20.60;1.00;;;;;;5076521;28;20457;-84
2023/04/22 10:46:31;;;;;;;2.50;2.08;;;20.20;1.00;;;;;;5110255;28;20396;-85
2023/04/22 10:48:58;;;;;;;2.00;1.90;;;20.00;1.00;;;;;;5079377;28;20432;-85
2023/04/22 10:51:39;;;;;;;2.27;2.00;;;20.10;1.00;;;;;;5103392;28;20406;-84
2023/04/22 10:54:05;;;;;;;4.80;2.20;;;20.20;1.00;;;;;;5080804;28;20430;-84
2023/04/22 10:56:31;;;;;;;3.20;2.35;;;19.90;1.00;;;;;;5075731;28;20397;-83
2023/04/22 10:58:56;;;;;;;2.50;2.30;;;19.80;1.00;;;;;;5081870;28;20455;-83
2023/04/22 11:01:22;;;;;;;2.20;2.00;;;19.60;1.00;;;;;;5079779;28;20979;-85
2023/04/22 11:03:50;;;;;;;3.08;2.70;;;19.50;1.00;;;;;;5100398;28;20409;-84
2023/04/22 11:06:17;;;;;;;4.20;2.90;;;19.20;1.00;;;;;;5102941;28;20934;-85
2023/04/22 11:08:47;;;;;;;3.63;2.72;;;19.10;1.00;;;;;;5096677;28;20377;-85
2023/04/22 11:11:15;;;;;;;3.00;2.70;;;19.10;1.00;;;;;;5080287;28;20382;-85
2023/04/22 11:13:42;;;;;;;2.40;2.20;;;19.00;1.00;;;;;;5078612;28;20387;-85
2023/04/22 11:16:08;;;;;;;2.90;2.08;;;18.70;1.90;;;;;;5097096;28;20386;-85
2023/04/22 11:18:34;;;;;;;3.20;2.60;;;18.50;8.30;;;;;;5096808;28;20461;-85
2023/04/22 11:21:08;;;;;;;2.60;2.40;;;18.60;8.00;;;;;;5097336;28;20389;-84
2023/04/22 11:23:35;;;;;;;2.75;2.55;;;18.70;8.60;;;;;;5097793;28;20421;-84
2023/04/22 11:26:03;;;;;;;3.83;2.40;;;18.80;4.90;;;;;;5076875;28;20475;-84
2023/04/22 11:28:29;;;;;;;3.67;2.35;;;18.80;2.30;;;;;;5076182;28;20383;-83
2023/04/22 11:31:13;;;;;;;2.80;2.60;;;18.90;3.00;;;;;;5098610;28;20386;-84
2023/04/22 11:33:40;;;;;;;2.70;2.47;;;19.20;2.20;;;;;;5097523;28;20385;-83
2023/04/22 11:36:10;;;;;;;2.80;2.10;;;19.70;1.00;;;;;;5079274;28;20474;-84
2023/04/22 11:38:36;;;;;;;2.60;2.30;;;20.30;1.00;;;;;;5080564;28;20390;-84
2023/04/22 11:41:03;;;;;;;2.97;2.40;;;20.50;1.00;;;;;;5080338;28;20380;-83
2023/04/22 11:43:29;;;;;;;2.65;2.42;;;20.50;1.00;;;;;;5080725;28;20384;-83
2023/04/22 11:45:56;;;;;;;2.80;2.30;;;20.80;1.00;;;;;;5080144;28;20388;-83
2023/04/22 11:48:21;;;;;;;5.40;2.40;;;20.30;1.00;;;;;;5080124;28;20379;-83
2023/04/22 11:50:47;;;;;;;2.53;2.23;;;20.50;1.00;;;;;;5080788;28;20414;-83
2023/04/22 11:53:15;;;;;;;2.60;2.20;;;20.50;1.00;;;;;;5079693;28;20390;-84
2023/04/22 11:55:41;;;;;;;3.08;1.98;;;20.20;1.00;;;;;;5088520;28;20394;-83
2023/04/22 11:58:16;;;;;;;3.15;1.98;;;20.40;1.00;;;;;;5090885;28;20389;-83
2023/04/22 12:00:46;;;;;;;2.65;2.03;;;20.50;1.00;;;;;;5093047;28;20386;-85
2023/04/22 12:03:16;;;;;;;3.85;2.53;;;20.50;1.00;;;;;;5099832;28;20394;-85
2023/04/22 12:05:46;;;;;;;2.83;2.07;;;20.60;1.00;;;;;;5102481;28;20381;-85
2023/04/22 12:08:20;;;;;;;2.28;2.00;;;20.30;1.00;;;;;;5102473;28;20378;-84
2023/04/22 12:10:57;;;;;;;2.90;2.30;;;20.10;1.00;;;;;;5108657;28;20378;-84
2023/04/22 12:13:25;;;;;;;2.83;2.40;;;20.00;1.00;;;;;;5082699;28;20384;-85
2023/04/22 12:15:56;;;;;;;2.33;1.95;;;19.90;1.00;;;;;;5078773;28;20415;-85
2023/04/22 12:18:49;;;;;;;4.13;2.70;;;19.60;1.00;;;;;;5079410;28;20466;-85
2023/04/22 12:21:22;;;;;;;2.55;2.35;;;19.50;1.00;;;;;;5104996;28;20384;-85
2023/04/22 12:23:53;;;;;;;2.85;2.40;;;19.40;1.00;;;;;;5080933;28;20477;-85
2023/04/22 12:26:23;;;;;;;3.67;2.42;;;19.40;1.00;;;;;;5095357;28;20374;-86
2023/04/22 12:28:50;;;;;;;4.97;2.30;;;19.80;1.00;;;;;;5093723;28;20382;-85
2023/04/22 12:31:16;;;;;;;2.80;2.60;;;20.10;1.00;;;;;;5075796;28;20943;-86
2023/04/22 12:33:41;;;;;;;4.77;2.90;;;20.00;1.00;;;;;;5064546;28;20440;-85
2023/04/22 12:36:07;;;;;;;3.50;2.70;;;20.30;1.00;;;;;;5066445;28;20386;-86
2023/04/22 12:38:33;;;;;;;2.95;2.65;;;20.30;1.00;;;;;;5074717;28;20488;-85
2023/04/22 12:40:59;;;;;;;3.00;2.40;;;20.50;1.00;;;;;;5094549;28;20397;-86
2023/04/22 12:43:25;;;;;;;4.00;2.33;;;20.20;1.00;;;;;;5093149;28;20465;-86
2023/04/22 12:45:50;;;;;;;2.30;2.10;;;20.60;1.00;;;;;;5074117;28;21152;-86
2023/04/22 12:48:16;;;;;;;2.95;2.10;;;20.80;1.00;;;;;;5075300;28;20379;-86
2023/04/22 12:50:42;;;;;;;3.43;2.40;;;20.90;1.00;;;;;;5092425;28;20408;-86
2023/04/22 12:53:07;;;;;;;3.03;2.40;;;20.80;1.00;;;;;;5071172;28;20454;-86